createdAt,value
2022-08-21T00:01:54.765Z,9.93
2022-08-21T00:04:23.054Z,8.10
2022-08-21T00:06:56.806Z,8.67
2022-08-21T00:09:24.038Z,8.70
2022-08-21T00:11:50.984Z,8.47
2022-08-21T00:14:18.157Z,11.67
2022-08-21T00:16:45.596Z,5.40
2022-08-21T00:19:13.029Z,10.53
2022-08-21T00:21:40.410Z,8.50
2022-08-21T00:24:12.381Z,8.23
2022-08-21T00:26:39.937Z,7.70
2022-08-21T00:29:06.853Z,10.57
2022-08-21T00:31:34.012Z,6.80
2022-08-21T00:34:01.398Z,9.47
2022-08-21T00:36:29.069Z,6.83
2022-08-21T00:38:56.734Z,8.93
2022-08-21T00:41:38.259Z,8.03
2022-08-21T00:44:12.757Z,8.73
2022-08-21T00:46:41.022Z,6.83
2022-08-21T00:49:10.164Z,6.83
2022-08-21T00:51:59.485Z,8.27
2022-08-21T00:54:30.592Z,8.30
2022-08-21T00:57:03.415Z,8.33
2022-08-21T00:59:35.618Z,6.60
2022-08-21T01:02:03.523Z,8.50
2022-08-21T01:04:30.503Z,6.93
2022-08-21T01:06:57.874Z,7.90
2022-08-21T01:09:24.872Z,6.87
2022-08-21T01:11:52.084Z,6.30
2022-08-21T01:14:20.985Z,8.50
2022-08-21T01:16:50.917Z,8.97
2022-08-21T01:19:20.738Z,7.30
2022-08-21T01:21:47.983Z,7.57
2022-08-21T01:24:15.120Z,8.37
2022-08-21T01:26:43.468Z,7.53
2022-08-21T01:29:16.557Z,6.70
2022-08-21T01:31:44.275Z,5.53
2022-08-21T01:34:12.007Z,10.07
2022-08-21T01:36:39.182Z,8.57
2022-08-21T01:39:06.877Z,6.70
2022-08-21T01:41:34.388Z,7.67
2022-08-21T01:44:01.603Z,7.10
2022-08-21T01:46:28.588Z,7.63
2022-08-21T01:48:55.785Z,7.63
2022-08-21T01:51:22.778Z,8.50
2022-08-21T01:53:49.896Z,8.90
2022-08-21T01:56:17.375Z,11.10
2022-08-21T01:58:47.589Z,6.47
2022-08-21T02:01:15.295Z,8.07
2022-08-21T02:03:43.092Z,7.70
2022-08-21T02:06:15.994Z,8.07
2022-08-21T02:08:43.185Z,11.20
2022-08-21T02:11:10.117Z,10.30
2022-08-21T02:13:37.128Z,5.63
2022-08-21T02:16:04.626Z,10.73
2022-08-21T02:18:31.905Z,7.80
2022-08-21T02:20:58.905Z,7.23
2022-08-21T02:23:27.071Z,6.40
2022-08-21T02:26:06.001Z,7.67
2022-08-21T02:28:34.130Z,9.13
2022-08-21T02:31:02.165Z,6.47
2022-08-21T02:33:29.593Z,8.37
2022-08-21T02:35:57.427Z,10.90
2022-08-21T02:38:30.371Z,11.93
2022-08-21T02:40:58.325Z,10.63
2022-08-21T02:43:27.741Z,9.27
2022-08-21T02:45:57.144Z,9.43
2022-08-21T02:48:27.395Z,9.30
2022-08-21T02:51:05.190Z,7.80
2022-08-21T02:53:33.716Z,8.50
2022-08-21T02:56:03.110Z,8.80
2022-08-21T02:58:33.735Z,7.97
2022-08-21T03:01:01.136Z,7.77
2022-08-21T03:03:30.038Z,10.47
2022-08-21T03:05:57.683Z,8.00
2022-08-21T03:08:26.480Z,7.97
2022-08-21T03:10:54.893Z,7.00
2022-08-21T03:13:22.062Z,11.60
2022-08-21T03:15:50.703Z,7.27
2022-08-21T03:18:18.380Z,7.83
2022-08-21T03:20:48.610Z,7.67
2022-08-21T03:23:18.539Z,8.57
2022-08-21T03:25:48.444Z,9.47
2022-08-21T03:28:19.573Z,9.57
2022-08-21T03:30:50.159Z,8.07
2022-08-21T03:33:18.032Z,9.27
2022-08-21T03:35:57.535Z,11.60
2022-08-21T03:38:26.660Z,6.97
2022-08-21T03:40:54.319Z,8.60
2022-08-21T03:43:22.961Z,9.70
2022-08-21T03:45:50.045Z,9.23
2022-08-21T03:48:20.906Z,9.93
2022-08-21T03:50:50.206Z,9.23
2022-08-21T03:53:18.081Z,11.00
2022-08-21T03:55:47.626Z,7.83
2022-08-21T03:58:17.919Z,6.53
2022-08-21T04:00:46.714Z,8.83
2022-08-21T04:03:13.888Z,7.23
2022-08-21T04:05:41.957Z,9.73
2022-08-21T04:08:09.316Z,8.80
2022-08-21T04:10:39.120Z,13.20
2022-08-21T04:13:08.217Z,8.33
2022-08-21T04:15:36.175Z,9.33
2022-08-21T04:18:04.578Z,13.07
2022-08-21T04:20:31.814Z,10.33
2022-08-21T04:22:58.906Z,9.20
2022-08-21T04:25:29.089Z,8.17
2022-08-21T04:27:56.117Z,8.20
2022-08-21T04:30:28.294Z,8.60
2022-08-21T04:32:58.689Z,7.20
2022-08-21T04:35:27.986Z,10.37
2022-08-21T04:37:55.399Z,8.47
2022-08-21T04:40:25.747Z,6.53
2022-08-21T04:42:55.729Z,7.20
2022-08-21T04:45:24.741Z,10.60
2022-08-21T04:47:57.410Z,8.13
2022-08-21T04:50:39.528Z,10.57
2022-08-21T04:53:09.617Z,6.60
2022-08-21T04:55:38.118Z,11.27
2022-08-21T04:58:07.740Z,9.70
2022-08-21T05:00:35.546Z,10.50
2022-08-21T05:03:05.705Z,6.20
2022-08-21T05:05:33.250Z,6.27
2022-08-21T05:08:03.518Z,6.93
2022-08-21T05:10:32.503Z,11.20
2022-08-21T05:13:00.919Z,9.30
2022-08-21T05:15:28.469Z,8.93
2022-08-21T05:18:00.661Z,7.13
2022-08-21T05:20:30.180Z,6.87
2022-08-21T05:22:57.413Z,6.80
2022-08-21T05:25:24.583Z,7.00
2022-08-21T05:27:52.440Z,6.50
2022-08-21T05:30:21.053Z,9.37
2022-08-21T05:32:48.814Z,6.50
2022-08-21T05:35:15.900Z,7.10
2022-08-21T05:37:43.104Z,8.83
2022-08-21T05:40:22.318Z,8.63
2022-08-21T05:42:55.820Z,7.83
2022-08-21T05:45:42.994Z,8.60
2022-08-21T05:48:19.825Z,9.17
2022-08-21T05:50:48.022Z,5.53
2022-08-21T05:53:16.803Z,11.93
2022-08-21T05:55:46.263Z,8.60
2022-08-21T05:58:21.050Z,6.37
2022-08-21T06:00:49.634Z,10.30
2022-08-21T06:03:23.524Z,8.47
2022-08-21T06:05:50.852Z,7.00
2022-08-21T06:08:18.821Z,10.70
2022-08-21T06:10:47.432Z,7.03
2022-08-21T06:13:16.034Z,8.93
2022-08-21T06:15:43.189Z,9.07
2022-08-21T06:18:10.481Z,8.20
2022-08-21T06:20:38.029Z,7.57
2022-08-21T06:23:05.754Z,8.18
2022-08-21T06:25:33.166Z,11.90
2022-08-21T06:28:06.918Z,11.02
2022-08-21T06:30:34.489Z,9.13
2022-08-21T06:33:02.496Z,6.85
2022-08-21T06:35:30.762Z,6.53
2022-08-21T06:37:58.514Z,8.52
2022-08-21T06:40:27.422Z,5.53
2022-08-21T06:42:58.732Z,9.80
2022-08-21T06:45:26.267Z,6.78
2022-08-21T06:47:57.093Z,6.97
2022-08-21T06:50:24.075Z,7.80
2022-08-21T06:52:58.732Z,7.35
2022-08-21T06:55:29.113Z,5.60
2022-08-21T06:57:56.282Z,6.90
2022-08-21T07:00:23.334Z,7.18
2022-08-21T07:02:50.730Z,5.93
2022-08-21T07:05:18.812Z,9.38
2022-08-21T07:07:46.962Z,9.50
2022-08-21T07:10:22.128Z,7.53
2022-08-21T07:12:59.159Z,8.30
2022-08-21T07:15:30.562Z,7.03
2022-08-21T07:17:59.396Z,6.20
2022-08-21T07:20:28.156Z,7.57
2022-08-21T07:22:56.140Z,7.55
2022-08-21T07:25:23.209Z,7.57
2022-08-21T07:27:50.276Z,9.35
2022-08-21T07:30:17.694Z,7.88
2022-08-21T07:32:44.949Z,5.88
2022-08-21T07:35:12.298Z,6.43
2022-08-21T07:37:39.494Z,7.35
2022-08-21T07:40:07.004Z,8.93
2022-08-21T07:42:34.093Z,6.88
2022-08-21T07:45:01.213Z,5.50
2022-08-21T07:47:41.311Z,8.45
2022-08-21T07:50:14.566Z,9.38
2022-08-21T07:52:43.236Z,12.32
2022-08-21T07:55:18.804Z,8.20
2022-08-21T07:57:46.657Z,5.80
2022-08-21T08:00:17.103Z,8.20
2022-08-21T08:02:47.629Z,6.45
2022-08-21T08:05:14.742Z,7.10
2022-08-21T08:07:42.013Z,7.57
2022-08-21T08:10:10.281Z,8.75
2022-08-21T08:12:43.834Z,8.35
2022-08-21T08:15:15.206Z,9.02
2022-08-21T08:17:43.117Z,6.47
2022-08-21T08:20:11.843Z,6.15
2022-08-21T08:22:40.023Z,5.90
2022-08-21T08:25:09.785Z,6.47
2022-08-21T08:27:37.410Z,8.40
2022-08-21T08:30:06.300Z,10.70
2022-08-21T08:32:34.372Z,7.80
2022-08-21T08:35:01.620Z,11.55
2022-08-21T08:37:34.197Z,6.22
2022-08-21T08:40:03.460Z,7.00
2022-08-21T08:42:34.996Z,5.63
2022-08-21T08:45:12.891Z,6.50
2022-08-21T08:47:45.594Z,6.35
2022-08-21T08:50:18.543Z,8.23
2022-08-21T08:53:33.018Z,7.78
2022-08-21T08:56:02.930Z,10.43
2022-08-21T08:58:36.381Z,7.07
2022-08-21T09:01:11.919Z,6.57
2022-08-21T09:03:40.816Z,7.57
2022-08-21T09:06:28.160Z,5.53
2022-08-21T09:09:17.679Z,7.03
2022-08-21T09:11:56.524Z,6.00
2022-08-21T09:14:27.356Z,6.05
2022-08-21T09:17:05.081Z,4.00
2022-08-21T09:19:48.680Z,7.35
2022-08-21T09:22:31.602Z,8.15
2022-08-21T09:25:24.095Z,6.85
2022-08-21T09:27:51.777Z,6.93
2022-08-21T09:30:24.870Z,4.60
2022-08-21T09:32:51.813Z,5.25
2022-08-21T09:35:22.317Z,4.53
2022-08-21T09:38:03.889Z,4.30
2022-08-21T09:40:45.134Z,5.57
2022-08-21T09:43:12.142Z,5.05
2022-08-21T09:45:42.197Z,7.93
2022-08-21T09:48:26.346Z,6.05
2022-08-21T09:51:06.108Z,9.02
2022-08-21T09:53:36.063Z,9.32
2022-08-21T09:56:35.664Z,4.80
2022-08-21T09:59:13.626Z,10.18
2022-08-21T10:01:52.106Z,5.97
2022-08-21T10:04:30.749Z,4.28
2022-08-21T10:07:12.045Z,6.55
2022-08-21T10:09:39.298Z,4.47
2022-08-21T10:12:29.790Z,6.10
2022-08-21T10:14:59.565Z,5.93
2022-08-21T10:18:03.252Z,4.82
2022-08-21T10:20:50.466Z,4.18
2022-08-21T10:23:34.466Z,6.82
2022-08-21T10:26:30.141Z,5.85
2022-08-21T10:29:06.300Z,8.18
2022-08-21T10:31:51.963Z,10.57
2022-08-21T10:34:32.493Z,5.13
2022-08-21T10:37:40.896Z,4.68
2022-08-21T10:40:11.565Z,4.80
2022-08-21T10:42:59.850Z,4.07
2022-08-21T10:45:51.640Z,8.95
2022-08-21T10:48:50.733Z,8.90
2022-08-21T10:51:43.183Z,4.65
2022-08-21T10:54:23.367Z,5.13
2022-08-21T10:56:55.463Z,7.10
2022-08-21T10:59:38.447Z,5.72
2022-08-21T11:02:20.969Z,6.65
2022-08-21T11:05:02.734Z,3.92
2022-08-21T11:07:35.338Z,4.13
2022-08-21T11:10:15.729Z,5.65
2022-08-21T11:13:01.488Z,7.75
2022-08-21T11:15:45.968Z,5.50
2022-08-21T11:18:37.499Z,7.88
2022-08-21T11:21:10.730Z,3.55
2022-08-21T11:23:55.585Z,5.95
2022-08-21T11:26:34.876Z,4.95
2022-08-21T11:29:30.689Z,10.68
2022-08-21T11:32:10.430Z,5.45
2022-08-21T11:34:52.635Z,3.97
2022-08-21T11:37:40.606Z,6.18
2022-08-21T11:40:20.053Z,5.75
2022-08-21T11:42:52.671Z,3.28
2022-08-21T11:45:28.379Z,6.95
2022-08-21T11:47:56.692Z,15.68
2022-08-21T11:50:35.605Z,4.65
2022-08-21T11:53:03.316Z,4.05
2022-08-21T11:55:37.658Z,4.82
2022-08-21T11:58:15.610Z,4.85
2022-08-21T12:00:58.533Z,5.25
2022-08-21T12:03:35.521Z,3.72
2022-08-21T12:06:07.506Z,7.68
2022-08-21T12:08:40.082Z,4.70
2022-08-21T12:11:30.685Z,4.22
2022-08-21T12:14:07.667Z,9.98
2022-08-21T12:16:38.741Z,5.75
2022-08-21T12:19:25.639Z,4.22
2022-08-21T12:21:58.834Z,10.45
2022-08-21T12:24:28.837Z,4.20
2022-08-21T12:27:16.194Z,7.18
2022-08-21T12:30:08.768Z,4.13
2022-08-21T12:32:55.196Z,6.05
2022-08-21T12:35:26.736Z,4.00
2022-08-21T12:38:06.124Z,5.28
2022-08-21T12:40:43.613Z,3.53
2022-08-21T12:43:22.609Z,2.95
2022-08-21T12:45:52.053Z,5.88
2022-08-21T12:48:25.208Z,7.03
2022-08-21T12:51:00.196Z,4.78
2022-08-21T12:53:30.329Z,4.63
2022-08-21T12:56:02.327Z,5.97
2022-08-21T12:58:29.886Z,6.63
2022-08-21T13:01:07.575Z,7.82
2022-08-21T13:03:38.904Z,5.40
2022-08-21T13:06:06.625Z,4.75
2022-08-21T13:08:40.789Z,4.93
2022-08-21T13:11:14.972Z,4.55
2022-08-21T13:13:47.181Z,3.67
2022-08-21T13:16:29.660Z,2.90
2022-08-21T13:19:02.585Z,5.15
2022-08-21T13:21:34.712Z,4.65
2022-08-21T13:27:22.006Z,4.13
2022-08-21T13:29:54.193Z,3.30
2022-08-21T13:32:26.681Z,4.85
2022-08-21T13:34:54.088Z,4.25
2022-08-21T13:37:24.144Z,3.33
2022-08-21T13:39:53.870Z,3.45
2022-08-21T13:42:21.285Z,6.28
2022-08-21T13:44:49.091Z,5.82
2022-08-21T13:47:18.889Z,8.85
2022-08-21T13:49:48.561Z,6.22
2022-08-21T13:52:22.955Z,4.30
2022-08-21T13:55:07.868Z,9.80
2022-08-21T13:57:37.181Z,7.57
2022-08-21T14:00:29.441Z,3.70
2022-08-21T14:03:09.735Z,5.43
2022-08-21T14:05:43.821Z,5.25
2022-08-21T14:08:30.213Z,4.70
2022-08-21T14:10:58.679Z,5.85
2022-08-21T14:13:40.368Z,4.10
2022-08-21T14:16:26.401Z,7.68
2022-08-21T14:19:08.874Z,3.65
2022-08-21T14:21:39.457Z,4.30
2022-08-21T14:24:11.486Z,4.10
2022-08-21T14:27:02.970Z,4.43
2022-08-21T14:29:36.240Z,3.92
2022-08-21T14:32:32.801Z,7.40
2022-08-21T14:35:00.078Z,3.10
2022-08-21T14:37:27.321Z,6.03
2022-08-21T14:39:54.418Z,3.70
2022-08-21T14:42:21.816Z,5.78
2022-08-21T14:44:49.012Z,5.25
2022-08-21T14:47:16.091Z,3.13
2022-08-21T14:49:43.806Z,3.67
2022-08-21T14:52:12.659Z,2.97
2022-08-21T14:54:39.581Z,6.25
2022-08-21T14:57:10.766Z,4.35
2022-08-21T14:59:39.058Z,7.47
2022-08-21T15:02:07.090Z,3.47
2022-08-21T15:04:35.196Z,5.53
2022-08-21T15:07:02.581Z,5.70
2022-08-21T15:09:29.598Z,4.97
2022-08-21T15:11:58.997Z,11.32
2022-08-21T15:14:28.934Z,3.45
2022-08-21T15:16:56.302Z,4.50
2022-08-21T15:19:23.648Z,2.45
2022-08-21T15:21:50.807Z,5.30
2022-08-21T15:24:17.984Z,4.40
2022-08-21T15:26:46.389Z,4.32
2022-08-21T15:29:13.566Z,5.00
2022-08-21T15:31:59.326Z,4.20
2022-08-21T15:34:29.529Z,4.88
2022-08-21T15:36:58.284Z,7.70
2022-08-21T15:39:30.925Z,5.82
2022-08-21T15:42:00.146Z,6.18
2022-08-21T15:44:39.282Z,7.25
2022-08-21T15:47:12.086Z,6.60
2022-08-21T15:49:39.124Z,7.63
2022-08-21T15:52:06.173Z,3.30
2022-08-21T15:54:33.328Z,7.22
2022-08-21T15:57:00.288Z,3.92
2022-08-21T15:59:28.001Z,5.30
2022-08-21T16:01:55.233Z,3.88
2022-08-21T16:04:28.189Z,5.80
2022-08-21T16:07:03.151Z,5.38
2022-08-21T16:09:33.749Z,11.40
2022-08-21T16:12:01.745Z,6.10
2022-08-21T16:14:31.642Z,5.00
2022-08-21T16:16:59.257Z,5.32
2022-08-21T16:19:29.006Z,11.27
2022-08-21T16:21:56.005Z,7.82
2022-08-21T16:24:23.222Z,9.18
2022-08-21T16:26:57.685Z,6.53
2022-08-21T16:29:30.380Z,4.95
2022-08-21T16:31:57.369Z,5.28
2022-08-21T16:34:24.951Z,6.13
2022-08-21T16:36:52.179Z,5.82
2022-08-21T16:39:19.444Z,6.13
2022-08-21T16:41:50.821Z,5.50
2022-08-21T16:44:19.710Z,6.82
2022-08-21T16:46:46.751Z,4.63
2022-08-21T16:49:13.801Z,6.45
2022-08-21T16:51:40.998Z,6.47
2022-08-21T16:54:07.994Z,8.35
2022-08-21T16:56:39.497Z,6.60
2022-08-21T16:59:07.312Z,5.70
2022-08-21T17:01:35.455Z,4.80
2022-08-21T17:04:03.439Z,4.50
2022-08-21T17:06:31.778Z,6.95
2022-08-21T17:09:01.077Z,7.72
2022-08-21T17:11:37.901Z,6.53
2022-08-21T17:14:25.722Z,7.03
2022-08-21T17:16:55.645Z,7.80
2022-08-21T17:19:27.130Z,5.32
2022-08-21T17:21:54.069Z,5.65
2022-08-21T17:24:21.316Z,7.75
2022-08-21T17:26:49.293Z,6.90
2022-08-21T17:29:28.337Z,6.03
2022-08-21T17:31:56.723Z,6.13
2022-08-21T17:34:24.331Z,5.97
2022-08-21T17:36:58.264Z,7.45
2022-08-21T17:39:26.652Z,6.30
2022-08-21T17:41:57.971Z,5.53
2022-08-21T17:44:25.572Z,8.75
2022-08-21T17:46:52.503Z,4.90
2022-08-21T17:49:19.459Z,7.20
2022-08-21T17:51:46.570Z,10.70
2022-08-21T17:54:13.520Z,5.88
2022-08-21T17:56:42.054Z,5.72
2022-08-21T17:59:10.552Z,5.25
2022-08-21T18:01:43.265Z,8.48
2022-08-21T18:04:11.702Z,9.77
2022-08-21T18:06:38.798Z,5.78
2022-08-21T18:09:06.321Z,8.27
2022-08-21T18:11:35.622Z,7.32
2022-08-21T18:14:07.588Z,6.57
2022-08-21T18:16:37.475Z,6.05
2022-08-21T18:19:09.493Z,7.82
2022-08-21T18:21:36.809Z,6.35
2022-08-21T18:24:04.252Z,7.20
2022-08-21T18:26:34.798Z,5.38
2022-08-21T18:29:02.498Z,6.40
2022-08-21T18:31:32.127Z,6.68
2022-08-21T18:34:01.033Z,10.00
2022-08-21T18:36:29.291Z,6.75
2022-08-21T18:39:13.644Z,8.98
2022-08-21T18:41:45.828Z,6.75
2022-08-21T18:44:14.652Z,7.43
2022-08-21T18:46:45.734Z,7.65
2022-08-21T18:49:12.895Z,8.45
2022-08-21T18:51:43.502Z,9.30
2022-08-21T18:54:12.994Z,7.37
2022-08-21T18:56:41.718Z,9.33
2022-08-21T18:59:10.363Z,9.10
2022-08-21T19:01:38.198Z,10.90
2022-08-21T19:06:54.795Z,6.57
2022-08-21T19:09:21.923Z,8.43
2022-08-21T19:11:49.356Z,7.77
2022-08-21T19:14:18.855Z,10.00
2022-08-21T19:16:50.442Z,8.67
2022-08-21T19:19:18.149Z,10.57
2022-08-21T19:21:47.110Z,11.90
2022-08-21T19:24:17.929Z,8.67
2022-08-21T19:26:45.433Z,8.57
2022-08-21T19:29:15.316Z,7.90
2022-08-21T19:31:44.625Z,7.83
2022-08-21T19:34:16.529Z,9.30
2022-08-21T19:36:44.638Z,9.47
2022-08-21T19:39:13.432Z,10.07
2022-08-21T19:41:45.483Z,9.37
2022-08-21T19:44:16.980Z,10.37
2022-08-21T19:46:48.153Z,11.30
2022-08-21T19:49:21.178Z,9.33
2022-08-21T19:51:49.709Z,13.17
2022-08-21T19:54:25.992Z,7.17
2022-08-21T19:56:56.213Z,8.87
2022-08-21T19:59:25.523Z,10.63
2022-08-21T20:01:52.966Z,9.63
2022-08-21T20:04:20.976Z,10.90
2022-08-21T20:06:48.103Z,10.67
2022-08-21T20:09:16.248Z,12.53
2022-08-21T20:11:48.333Z,13.40
2022-08-21T20:14:17.997Z,10.23
2022-08-21T20:16:47.403Z,11.73
2022-08-21T20:19:14.732Z,11.63
2022-08-21T20:21:43.582Z,12.37
2022-08-21T20:24:14.707Z,14.00
2022-08-21T20:26:49.301Z,9.17
2022-08-21T20:29:24.570Z,10.80
2022-08-21T20:32:00.721Z,9.67
2022-08-21T20:34:27.917Z,14.50
2022-08-21T20:36:54.902Z,11.80
2022-08-21T20:39:23.967Z,18.30
2022-08-21T20:41:53.099Z,16.00
2022-08-21T20:44:20.746Z,13.57
2022-08-21T20:46:47.953Z,15.40
2022-08-21T20:49:23.989Z,20.70
2022-08-21T20:51:53.261Z,22.73
2022-08-21T20:54:35.504Z,21.23
2022-08-21T20:57:24.114Z,23.73
2022-08-21T21:00:05.332Z,18.67
2022-08-21T21:02:53.765Z,23.27
2022-08-21T21:05:25.791Z,24.73
2022-08-21T21:07:55.777Z,20.47
2022-08-21T21:10:48.825Z,18.60
2022-08-21T21:13:20.176Z,16.80
2022-08-21T21:15:52.038Z,18.30
2022-08-21T21:18:40.783Z,14.40
2022-08-21T21:21:15.376Z,11.80
2022-08-21T21:23:56.638Z,13.93
2022-08-21T21:26:48.919Z,14.90
2022-08-21T21:29:37.664Z,11.73
2022-08-21T21:32:09.083Z,13.37
2022-08-21T21:34:46.496Z,13.10
2022-08-21T21:37:25.295Z,13.40
2022-08-21T21:40:04.959Z,10.93
2022-08-21T21:43:10.878Z,14.03
2022-08-21T21:46:02.276Z,10.90
2022-08-21T21:48:55.017Z,11.77
2022-08-21T21:52:02.131Z,11.10
2022-08-21T21:54:51.890Z,12.37
2022-08-21T21:58:16.702Z,11.93
2022-08-21T22:00:52.079Z,11.03
2022-08-21T22:03:29.616Z,11.17
2022-08-21T22:06:15.078Z,9.60
2022-08-21T22:09:09.353Z,12.93
2022-08-21T22:11:55.340Z,14.07
2022-08-21T22:14:34.357Z,12.30
2022-08-21T22:17:35.599Z,12.83
2022-08-21T22:20:13.121Z,12.47
2022-08-21T22:22:44.005Z,11.03
2022-08-21T22:25:36.585Z,11.10
2022-08-21T22:28:13.679Z,10.93
2022-08-21T22:30:47.627Z,13.13
2022-08-21T22:33:23.498Z,13.90
2022-08-21T22:35:52.918Z,13.77
2022-08-21T22:38:23.295Z,13.57
2022-08-21T22:40:50.977Z,16.43
2022-08-21T22:43:19.862Z,11.70
2022-08-21T22:46:00.838Z,11.47
2022-08-21T22:48:32.238Z,11.37
2022-08-21T22:51:12.524Z,9.63
2022-08-21T22:53:43.657Z,11.00
2022-08-21T22:56:32.108Z,16.17
2022-08-21T22:59:03.286Z,10.17
2022-08-21T23:01:40.262Z,13.27
2022-08-21T23:04:19.541Z,11.63
2022-08-21T23:06:55.315Z,10.47
2022-08-21T23:09:28.394Z,12.50
2022-08-21T23:12:01.260Z,11.83
2022-08-21T23:14:31.941Z,10.33
2022-08-21T23:17:32.502Z,12.23
2022-08-21T23:20:05.309Z,9.60
2022-08-21T23:22:51.729Z,12.50
2022-08-21T23:25:24.533Z,12.20
2022-08-21T23:28:20.935Z,11.27
2022-08-21T23:31:01.578Z,11.77
2022-08-21T23:33:40.605Z,11.47
2022-08-21T23:36:34.045Z,10.17
2022-08-21T23:39:20.617Z,9.93
2022-08-21T23:42:05.932Z,9.40
2022-08-21T23:44:47.113Z,9.43
2022-08-21T23:47:51.083Z,10.27
2022-08-21T23:50:29.549Z,10.40
2022-08-21T23:53:13.042Z,13.43
2022-08-21T23:55:43.692Z,15.13
2022-08-21T23:58:29.972Z,11.23
